sensor_id;sensor_type;location;lat;lon;timestamp;P1;durP1;ratioP1;P2;durP2;ratioP2
23426;SDS011;41148;45.420;10.952;2022-12-11T00:00:29;8.05;;;6.10;;
23426;SDS011;41148;45.420;10.952;2022-12-11T00:02:56;16.88;;;3.17;;
23426;SDS011;41148;45.420;10.952;2022-12-11T00:05:24;3.80;;;3.53;;
23426;SDS011;41148;45.420;10.952;2022-12-11T00:07:51;5.97;;;3.33;;
23426;SDS011;41148;45.420;10.952;2022-12-11T00:10:19;5.60;;;4.93;;
23426;SDS011;41148;45.420;10.952;2022-12-11T00:12:47;3.83;;;2.78;;
23426;SDS011;41148;45.420;10.952;2022-12-11T00:15:14;7.45;;;5.82;;
23426;SDS011;41148;45.420;10.952;2022-12-11T00:17:42;2.22;;;2.05;;
23426;SDS011;41148;45.420;10.952;2022-12-11T00:20:09;4.47;;;4.20;;
23426;SDS011;41148;45.420;10.952;2022-12-11T00:22:37;4.55;;;4.10;;
23426;SDS011;41148;45.420;10.952;2022-12-11T00:25:05;1.92;;;1.80;;
23426;SDS011;41148;45.420;10.952;2022-12-11T00:27:33;3.92;;;3.53;;
23426;SDS011;41148;45.420;10.952;2022-12-11T00:30:01;3.72;;;3.45;;
23426;SDS011;41148;45.420;10.952;2022-12-11T00:32:28;2.25;;;2.15;;
23426;SDS011;41148;45.420;10.952;2022-12-11T00:35:02;6.00;;;3.75;;
23426;SDS011;41148;45.420;10.952;2022-12-11T00:37:30;3.20;;;2.67;;
23426;SDS011;41148;45.420;10.952;2022-12-11T00:39:57;5.22;;;4.75;;
23426;SDS011;41148;45.420;10.952;2022-12-11T00:42:25;13.15;;;4.50;;
23426;SDS011;41148;45.420;10.952;2022-12-11T00:44:52;3.00;;;2.90;;
23426;SDS011;41148;45.420;10.952;2022-12-11T00:47:22;2.38;;;2.28;;
23426;SDS011;41148;45.420;10.952;2022-12-11T00:49:49;7.20;;;6.60;;
23426;SDS011;41148;45.420;10.952;2022-12-11T00:52:17;4.20;;;3.97;;
23426;SDS011;41148;45.420;10.952;2022-12-11T00:54:44;4.07;;;3.67;;
23426;SDS011;41148;45.420;10.952;2022-12-11T00:57:12;3.10;;;2.90;;
23426;SDS011;41148;45.420;10.952;2022-12-11T00:59:39;8.57;;;4.35;;
23426;SDS011;41148;45.420;10.952;2022-12-11T01:02:07;4.18;;;2.97;;
23426;SDS011;41148;45.420;10.952;2022-12-11T01:04:35;3.60;;;3.40;;
23426;SDS011;41148;45.420;10.952;2022-12-11T01:07:03;2.58;;;2.38;;
23426;SDS011;41148;45.420;10.952;2022-12-11T01:09:31;4.57;;;4.22;;
23426;SDS011;41148;45.420;10.952;2022-12-11T01:12:17;5.75;;;5.20;;
23426;SDS011;41148;45.420;10.952;2022-12-11T01:14:44;3.08;;;2.97;;
23426;SDS011;41148;45.420;10.952;2022-12-11T01:17:12;7.25;;;4.85;;
23426;SDS011;41148;45.420;10.952;2022-12-11T01:19:39;3.13;;;2.88;;
23426;SDS011;41148;45.420;10.952;2022-12-11T01:22:07;3.65;;;3.40;;
23426;SDS011;41148;45.420;10.952;2022-12-11T01:24:35;1.92;;;1.83;;
23426;SDS011;41148;45.420;10.952;2022-12-11T01:27:03;4.97;;;2.28;;
23426;SDS011;41148;45.420;10.952;2022-12-11T01:29:31;6.75;;;4.15;;
23426;SDS011;41148;45.420;10.952;2022-12-11T01:31:58;5.95;;;5.35;;
23426;SDS011;41148;45.420;10.952;2022-12-11T01:34:29;7.28;;;5.00;;
23426;SDS011;41148;45.420;10.952;2022-12-11T01:36:58;3.30;;;3.00;;
23426;SDS011;41148;45.420;10.952;2022-12-11T01:39:25;3.45;;;3.30;;
23426;SDS011;41148;45.420;10.952;2022-12-11T01:41:56;2.30;;;2.13;;
23426;SDS011;41148;45.420;10.952;2022-12-11T01:46:52;5.30;;;3.03;;
23426;SDS011;41148;45.420;10.952;2022-12-11T01:49:22;2.65;;;2.55;;
23426;SDS011;41148;45.420;10.952;2022-12-11T01:51:54;1.40;;;1.30;;
23426;SDS011;41148;45.420;10.952;2022-12-11T01:54:25;3.50;;;3.22;;
23426;SDS011;41148;45.420;10.952;2022-12-11T01:56:54;12.85;;;4.00;;
23426;SDS011;41148;45.420;10.952;2022-12-11T01:59:26;2.88;;;2.67;;
23426;SDS011;41148;45.420;10.952;2022-12-11T02:02:04;2.83;;;2.58;;
23426;SDS011;41148;45.420;10.952;2022-12-11T02:04:45;3.05;;;2.78;;
23426;SDS011;41148;45.420;10.952;2022-12-11T02:07:14;3.95;;;3.63;;
23426;SDS011;41148;45.420;10.952;2022-12-11T02:09:42;2.28;;;2.10;;
23426;SDS011;41148;45.420;10.952;2022-12-11T02:15:04;0.82;;;0.82;;
23426;SDS011;41148;45.420;10.952;2022-12-11T02:26:17;1.00;;;1.00;;
23426;SDS011;41148;45.420;10.952;2022-12-11T02:31:28;3.50;;;3.30;;
23426;SDS011;41148;45.420;10.952;2022-12-11T02:37:03;1.17;;;1.17;;
23426;SDS011;41148;45.420;10.952;2022-12-11T02:39:35;2.00;;;1.90;;
23426;SDS011;41148;45.420;10.952;2022-12-11T02:42:07;2.25;;;2.15;;
23426;SDS011;41148;45.420;10.952;2022-12-11T02:44:37;3.55;;;1.85;;
23426;SDS011;41148;45.420;10.952;2022-12-11T02:47:07;0.95;;;0.95;;
23426;SDS011;41148;45.420;10.952;2022-12-11T02:49:39;1.58;;;1.58;;
23426;SDS011;41148;45.420;10.952;2022-12-11T02:52:09;0.50;;;0.50;;
23426;SDS011;41148;45.420;10.952;2022-12-11T02:54:39;2.42;;;2.33;;
23426;SDS011;41148;45.420;10.952;2022-12-11T02:57:26;4.45;;;4.15;;
23426;SDS011;41148;45.420;10.952;2022-12-11T02:59:59;1.80;;;1.23;;
23426;SDS011;41148;45.420;10.952;2022-12-11T03:02:27;1.27;;;1.23;;
23426;SDS011;41148;45.420;10.952;2022-12-11T03:04:54;2.55;;;2.45;;
23426;SDS011;41148;45.420;10.952;2022-12-11T03:07:25;1.52;;;1.48;;
23426;SDS011;41148;45.420;10.952;2022-12-11T03:09:55;1.48;;;1.48;;
23426;SDS011;41148;45.420;10.952;2022-12-11T03:12:24;1.48;;;1.38;;
23426;SDS011;41148;45.420;10.952;2022-12-11T03:14:56;1.50;;;1.48;;
23426;SDS011;41148;45.420;10.952;2022-12-11T03:17:32;1.10;;;1.02;;
23426;SDS011;41148;45.420;10.952;2022-12-11T03:25:28;2.05;;;1.95;;
23426;SDS011;41148;45.420;10.952;2022-12-11T03:28:21;1.88;;;1.77;;
23426;SDS011;41148;45.420;10.952;2022-12-11T03:30:58;2.92;;;2.70;;
23426;SDS011;41148;45.420;10.952;2022-12-11T03:33:32;1.35;;;1.35;;
23426;SDS011;41148;45.420;10.952;2022-12-11T03:36:04;0.98;;;0.98;;
23426;SDS011;41148;45.420;10.952;2022-12-11T03:38:37;0.60;;;0.60;;
23426;SDS011;41148;45.420;10.952;2022-12-11T03:41:10;1.80;;;1.70;;
23426;SDS011;41148;45.420;10.952;2022-12-11T03:43:39;1.00;;;0.98;;
23426;SDS011;41148;45.420;10.952;2022-12-11T03:46:07;0.75;;;0.75;;
23426;SDS011;41148;45.420;10.952;2022-12-11T03:48:38;2.65;;;1.55;;
23426;SDS011;41148;45.420;10.952;2022-12-11T03:51:08;2.30;;;2.20;;
23426;SDS011;41148;45.420;10.952;2022-12-11T03:53:36;0.80;;;0.80;;
23426;SDS011;41148;45.420;10.952;2022-12-11T03:56:05;1.00;;;0.98;;
23426;SDS011;41148;45.420;10.952;2022-12-11T03:58:35;0.50;;;0.50;;
23426;SDS011;41148;45.420;10.952;2022-12-11T04:01:02;0.40;;;0.40;;
23426;SDS011;41148;45.420;10.952;2022-12-11T04:03:30;0.40;;;0.40;;
23426;SDS011;41148;45.420;10.952;2022-12-11T04:05:57;0.30;;;0.30;;
23426;SDS011;41148;45.420;10.952;2022-12-11T04:08:26;0.40;;;0.40;;
23426;SDS011;41148;45.420;10.952;2022-12-11T04:10:53;0.30;;;0.30;;
23426;SDS011;41148;45.420;10.952;2022-12-11T04:13:40;0.30;;;0.30;;
23426;SDS011;41148;45.420;10.952;2022-12-11T04:16:08;0.40;;;0.40;;
23426;SDS011;41148;45.420;10.952;2022-12-11T04:18:35;0.30;;;0.30;;
23426;SDS011;41148;45.420;10.952;2022-12-11T04:21:21;0.40;;;0.40;;
23426;SDS011;41148;45.420;10.952;2022-12-11T04:24:07;0.40;;;0.40;;
23426;SDS011;41148;45.420;10.952;2022-12-11T04:26:44;0.30;;;0.30;;
23426;SDS011;41148;45.420;10.952;2022-12-11T04:29:13;0.30;;;0.30;;
23426;SDS011;41148;45.420;10.952;2022-12-11T04:31:41;0.30;;;0.30;;
23426;SDS011;41148;45.420;10.952;2022-12-11T04:34:09;0.40;;;0.40;;
23426;SDS011;41148;45.420;10.952;2022-12-11T04:36:36;0.30;;;0.30;;
23426;SDS011;41148;45.420;10.952;2022-12-11T04:39:04;0.30;;;0.30;;
23426;SDS011;41148;45.420;10.952;2022-12-11T04:41:32;0.30;;;0.30;;
23426;SDS011;41148;45.420;10.952;2022-12-11T04:44:00;0.30;;;0.30;;
23426;SDS011;41148;45.420;10.952;2022-12-11T04:46:27;0.30;;;0.30;;
23426;SDS011;41148;45.420;10.952;2022-12-11T04:48:55;0.38;;;0.38;;
23426;SDS011;41148;45.420;10.952;2022-12-11T04:51:24;0.30;;;0.30;;
23426;SDS011;41148;45.420;10.952;2022-12-11T04:53:52;0.30;;;0.30;;
23426;SDS011;41148;45.420;10.952;2022-12-11T04:56:19;0.30;;;0.30;;
23426;SDS011;41148;45.420;10.952;2022-12-11T04:58:47;0.30;;;0.30;;
23426;SDS011;41148;45.420;10.952;2022-12-11T05:03:49;0.30;;;0.30;;
23426;SDS011;41148;45.420;10.952;2022-12-11T05:06:17;0.30;;;0.30;;
23426;SDS011;41148;45.420;10.952;2022-12-11T05:08:44;0.30;;;0.30;;
23426;SDS011;41148;45.420;10.952;2022-12-11T05:11:12;0.30;;;0.30;;
23426;SDS011;41148;45.420;10.952;2022-12-11T05:13:42;0.30;;;0.30;;
23426;SDS011;41148;45.420;10.952;2022-12-11T05:16:11;0.30;;;0.30;;
23426;SDS011;41148;45.420;10.952;2022-12-11T05:18:39;0.30;;;0.30;;
23426;SDS011;41148;45.420;10.952;2022-12-11T05:21:08;0.30;;;0.30;;
23426;SDS011;41148;45.420;10.952;2022-12-11T05:23:37;0.30;;;0.30;;
23426;SDS011;41148;45.420;10.952;2022-12-11T05:26:12;0.30;;;0.30;;
23426;SDS011;41148;45.420;10.952;2022-12-11T05:28:44;0.30;;;0.30;;
23426;SDS011;41148;45.420;10.952;2022-12-11T05:31:14;0.30;;;0.30;;
23426;SDS011;41148;45.420;10.952;2022-12-11T05:33:43;0.38;;;0.38;;
23426;SDS011;41148;45.420;10.952;2022-12-11T05:36:13;0.30;;;0.30;;
23426;SDS011;41148;45.420;10.952;2022-12-11T05:38:52;0.30;;;0.30;;
23426;SDS011;41148;45.420;10.952;2022-12-11T05:41:21;0.30;;;0.30;;
23426;SDS011;41148;45.420;10.952;2022-12-11T05:43:50;0.30;;;0.30;;
23426;SDS011;41148;45.420;10.952;2022-12-11T05:46:19;0.30;;;0.30;;
23426;SDS011;41148;45.420;10.952;2022-12-11T05:48:49;0.75;;;0.75;;
23426;SDS011;41148;45.420;10.952;2022-12-11T05:51:18;0.30;;;0.30;;
23426;SDS011;41148;45.420;10.952;2022-12-11T05:53:47;0.30;;;0.30;;
23426;SDS011;41148;45.420;10.952;2022-12-11T05:56:20;0.30;;;0.30;;
23426;SDS011;41148;45.420;10.952;2022-12-11T05:58:49;0.40;;;0.40;;
23426;SDS011;41148;45.420;10.952;2022-12-11T06:01:25;0.30;;;0.30;;
23426;SDS011;41148;45.420;10.952;2022-12-11T06:03:58;0.30;;;0.30;;
23426;SDS011;41148;45.420;10.952;2022-12-11T06:06:27;0.30;;;0.30;;
23426;SDS011;41148;45.420;10.952;2022-12-11T06:08:55;0.30;;;0.30;;
23426;SDS011;41148;45.420;10.952;2022-12-11T06:11:24;0.20;;;0.20;;
23426;SDS011;41148;45.420;10.952;2022-12-11T06:13:54;0.30;;;0.30;;
23426;SDS011;41148;45.420;10.952;2022-12-11T06:16:22;0.30;;;0.30;;
23426;SDS011;41148;45.420;10.952;2022-12-11T06:18:50;0.70;;;0.70;;
23426;SDS011;41148;45.420;10.952;2022-12-11T06:21:26;0.30;;;0.30;;
23426;SDS011;41148;45.420;10.952;2022-12-11T06:23:56;0.30;;;0.30;;
23426;SDS011;41148;45.420;10.952;2022-12-11T06:26:25;0.30;;;0.30;;
23426;SDS011;41148;45.420;10.952;2022-12-11T06:28:53;0.88;;;0.88;;
23426;SDS011;41148;45.420;10.952;2022-12-11T06:31:20;0.30;;;0.30;;
23426;SDS011;41148;45.420;10.952;2022-12-11T06:33:48;0.30;;;0.30;;
23426;SDS011;41148;45.420;10.952;2022-12-11T06:36:16;0.30;;;0.30;;
23426;SDS011;41148;45.420;10.952;2022-12-11T06:38:45;0.50;;;0.50;;
23426;SDS011;41148;45.420;10.952;2022-12-11T06:41:14;0.30;;;0.30;;
23426;SDS011;41148;45.420;10.952;2022-12-11T06:43:41;0.60;;;0.60;;
23426;SDS011;41148;45.420;10.952;2022-12-11T06:46:12;0.40;;;0.40;;
23426;SDS011;41148;45.420;10.952;2022-12-11T06:48:42;0.40;;;0.40;;
23426;SDS011;41148;45.420;10.952;2022-12-11T06:51:11;0.30;;;0.30;;
23426;SDS011;41148;45.420;10.952;2022-12-11T06:53:41;0.30;;;0.30;;
23426;SDS011;41148;45.420;10.952;2022-12-11T06:56:13;0.30;;;0.30;;
23426;SDS011;41148;45.420;10.952;2022-12-11T07:01:14;0.30;;;0.30;;
23426;SDS011;41148;45.420;10.952;2022-12-11T07:03:54;0.30;;;0.30;;
23426;SDS011;41148;45.420;10.952;2022-12-11T07:06:23;0.93;;;0.93;;
23426;SDS011;41148;45.420;10.952;2022-12-11T07:08:52;5.32;;;1.70;;
23426;SDS011;41148;45.420;10.952;2022-12-11T07:11:20;3.20;;;1.45;;
23426;SDS011;41148;45.420;10.952;2022-12-11T07:13:48;0.30;;;0.30;;
23426;SDS011;41148;45.420;10.952;2022-12-11T07:16:16;0.30;;;0.30;;
23426;SDS011;41148;45.420;10.952;2022-12-11T07:18:48;0.30;;;0.30;;
23426;SDS011;41148;45.420;10.952;2022-12-11T07:21:17;0.30;;;0.30;;
23426;SDS011;41148;45.420;10.952;2022-12-11T07:23:46;0.30;;;0.30;;
23426;SDS011;41148;45.420;10.952;2022-12-11T07:26:16;0.40;;;0.40;;
23426;SDS011;41148;45.420;10.952;2022-12-11T07:28:45;0.30;;;0.30;;
23426;SDS011;41148;45.420;10.952;2022-12-11T07:31:14;0.30;;;0.30;;
23426;SDS011;41148;45.420;10.952;2022-12-11T07:33:47;0.30;;;0.30;;
23426;SDS011;41148;45.420;10.952;2022-12-11T07:36:18;0.63;;;0.63;;
23426;SDS011;41148;45.420;10.952;2022-12-11T07:38:46;0.60;;;0.60;;
23426;SDS011;41148;45.420;10.952;2022-12-11T07:41:13;0.30;;;0.30;;
23426;SDS011;41148;45.420;10.952;2022-12-11T07:43:42;0.45;;;0.45;;
23426;SDS011;41148;45.420;10.952;2022-12-11T07:46:11;0.30;;;0.30;;
23426;SDS011;41148;45.420;10.952;2022-12-11T07:48:41;0.30;;;0.30;;
23426;SDS011;41148;45.420;10.952;2022-12-11T07:53:46;0.30;;;0.30;;
23426;SDS011;41148;45.420;10.952;2022-12-11T07:56:16;0.30;;;0.30;;
23426;SDS011;41148;45.420;10.952;2022-12-11T07:58:44;0.30;;;0.30;;
23426;SDS011;41148;45.420;10.952;2022-12-11T08:01:21;0.30;;;0.30;;
23426;SDS011;41148;45.420;10.952;2022-12-11T08:03:54;0.30;;;0.30;;
23426;SDS011;41148;45.420;10.952;2022-12-11T08:06:26;0.40;;;0.40;;
23426;SDS011;41148;45.420;10.952;2022-12-11T08:08:56;0.60;;;0.60;;
23426;SDS011;41148;45.420;10.952;2022-12-11T08:11:25;0.47;;;0.47;;
23426;SDS011;41148;45.420;10.952;2022-12-11T08:13:53;0.40;;;0.40;;
23426;SDS011;41148;45.420;10.952;2022-12-11T08:16:21;1.80;;;1.70;;
23426;SDS011;41148;45.420;10.952;2022-12-11T08:18:49;0.40;;;0.40;;
23426;SDS011;41148;45.420;10.952;2022-12-11T08:21:17;0.45;;;0.45;;
23426;SDS011;41148;45.420;10.952;2022-12-11T08:23:47;4.97;;;1.67;;
23426;SDS011;41148;45.420;10.952;2022-12-11T08:26:16;0.30;;;0.30;;
23426;SDS011;41148;45.420;10.952;2022-12-11T08:28:47;0.45;;;0.45;;
23426;SDS011;41148;45.420;10.952;2022-12-11T08:31:15;0.60;;;0.60;;
23426;SDS011;41148;45.420;10.952;2022-12-11T08:33:43;1.60;;;1.33;;
23426;SDS011;41148;45.420;10.952;2022-12-11T08:36:12;0.50;;;0.50;;
23426;SDS011;41148;45.420;10.952;2022-12-11T08:38:41;9.23;;;2.35;;
23426;SDS011;41148;45.420;10.952;2022-12-11T08:41:10;0.50;;;0.50;;
23426;SDS011;41148;45.420;10.952;2022-12-11T08:43:39;0.30;;;0.30;;
23426;SDS011;41148;45.420;10.952;2022-12-11T08:46:07;0.40;;;0.40;;
23426;SDS011;41148;45.420;10.952;2022-12-11T08:48:36;0.30;;;0.30;;
23426;SDS011;41148;45.420;10.952;2022-12-11T08:51:06;0.80;;;0.80;;
23426;SDS011;41148;45.420;10.952;2022-12-11T08:53:35;1.08;;;1.08;;
23426;SDS011;41148;45.420;10.952;2022-12-11T08:56:03;0.43;;;0.43;;
23426;SDS011;41148;45.420;10.952;2022-12-11T08:58:33;0.50;;;0.50;;
23426;SDS011;41148;45.420;10.952;2022-12-11T09:01:09;0.40;;;0.40;;
23426;SDS011;41148;45.420;10.952;2022-12-11T09:03:38;0.30;;;0.30;;
23426;SDS011;41148;45.420;10.952;2022-12-11T09:06:08;0.30;;;0.30;;
23426;SDS011;41148;45.420;10.952;2022-12-11T09:08:37;0.30;;;0.30;;
23426;SDS011;41148;45.420;10.952;2022-12-11T09:11:10;0.30;;;0.30;;
23426;SDS011;41148;45.420;10.952;2022-12-11T09:13:40;0.30;;;0.30;;
23426;SDS011;41148;45.420;10.952;2022-12-11T09:16:12;0.30;;;0.30;;
23426;SDS011;41148;45.420;10.952;2022-12-11T09:18:44;0.30;;;0.30;;
23426;SDS011;41148;45.420;10.952;2022-12-11T09:21:14;3.17;;;1.17;;
23426;SDS011;41148;45.420;10.952;2022-12-11T09:23:43;0.43;;;0.43;;
23426;SDS011;41148;45.420;10.952;2022-12-11T09:26:12;0.93;;;0.93;;
23426;SDS011;41148;45.420;10.952;2022-12-11T09:28:41;0.60;;;0.60;;
23426;SDS011;41148;45.420;10.952;2022-12-11T09:33:40;0.68;;;0.68;;
23426;SDS011;41148;45.420;10.952;2022-12-11T09:36:08;0.30;;;0.30;;
23426;SDS011;41148;45.420;10.952;2022-12-11T09:38:36;0.70;;;0.70;;
23426;SDS011;41148;45.420;10.952;2022-12-11T09:46:37;0.40;;;0.40;;
23426;SDS011;41148;45.420;10.952;2022-12-11T09:49:11;0.30;;;0.30;;
23426;SDS011;41148;45.420;10.952;2022-12-11T09:51:55;0.32;;;0.32;;
23426;SDS011;41148;45.420;10.952;2022-12-11T09:54:33;0.30;;;0.30;;
23426;SDS011;41148;45.420;10.952;2022-12-11T09:59:42;4.05;;;1.85;;
23426;SDS011;41148;45.420;10.952;2022-12-11T10:02:27;1.42;;;1.33;;
23426;SDS011;41148;45.420;10.952;2022-12-11T10:11:21;0.80;;;0.65;;
23426;SDS011;41148;45.420;10.952;2022-12-11T10:14:17;0.57;;;0.57;;
23426;SDS011;41148;45.420;10.952;2022-12-11T10:17:01;0.45;;;0.45;;
23426;SDS011;41148;45.420;10.952;2022-12-11T10:19:34;0.40;;;0.40;;
23426;SDS011;41148;45.420;10.952;2022-12-11T10:22:02;0.50;;;0.50;;
23426;SDS011;41148;45.420;10.952;2022-12-11T10:27:26;1.42;;;1.33;;
23426;SDS011;41148;45.420;10.952;2022-12-11T10:32:42;2.83;;;0.60;;
23426;SDS011;41148;45.420;10.952;2022-12-11T10:38:31;1.75;;;1.45;;
23426;SDS011;41148;45.420;10.952;2022-12-11T10:41:02;1.13;;;1.13;;
23426;SDS011;41148;45.420;10.952;2022-12-11T10:43:33;0.57;;;0.57;;
23426;SDS011;41148;45.420;10.952;2022-12-11T10:48:57;1.05;;;1.05;;
23426;SDS011;41148;45.420;10.952;2022-12-11T10:53:57;1.98;;;1.15;;
23426;SDS011;41148;45.420;10.952;2022-12-11T10:56:44;1.38;;;1.33;;
23426;SDS011;41148;45.420;10.952;2022-12-11T11:02:23;0.77;;;0.77;;
23426;SDS011;41148;45.420;10.952;2022-12-11T11:04:56;0.95;;;0.95;;
23426;SDS011;41148;45.420;10.952;2022-12-11T11:07:27;0.95;;;0.95;;
23426;SDS011;41148;45.420;10.952;2022-12-11T11:10:13;1.50;;;1.40;;
23426;SDS011;41148;45.420;10.952;2022-12-11T11:12:44;0.68;;;0.68;;
23426;SDS011;41148;45.420;10.952;2022-12-11T11:17:49;0.30;;;0.30;;
23426;SDS011;41148;45.420;10.952;2022-12-11T11:20:23;1.30;;;1.30;;
23426;SDS011;41148;45.420;10.952;2022-12-11T11:23:02;0.30;;;0.30;;
23426;SDS011;41148;45.420;10.952;2022-12-11T11:25:47;0.30;;;0.30;;
23426;SDS011;41148;45.420;10.952;2022-12-11T11:28:29;0.43;;;0.43;;
23426;SDS011;41148;45.420;10.952;2022-12-11T11:31:03;0.30;;;0.30;;
23426;SDS011;41148;45.420;10.952;2022-12-11T11:33:34;0.30;;;0.30;;
23426;SDS011;41148;45.420;10.952;2022-12-11T11:36:06;0.43;;;0.43;;
23426;SDS011;41148;45.420;10.952;2022-12-11T11:39:30;0.60;;;0.60;;
23426;SDS011;41148;45.420;10.952;2022-12-11T11:44:39;0.32;;;0.32;;
23426;SDS011;41148;45.420;10.952;2022-12-11T11:47:14;0.43;;;0.43;;
23426;SDS011;41148;45.420;10.952;2022-12-11T11:49:49;0.82;;;0.82;;
23426;SDS011;41148;45.420;10.952;2022-12-11T12:00:26;0.77;;;0.77;;
23426;SDS011;41148;45.420;10.952;2022-12-11T12:03:00;0.73;;;0.73;;
23426;SDS011;41148;45.420;10.952;2022-12-11T12:05:37;0.30;;;0.30;;
23426;SDS011;41148;45.420;10.952;2022-12-11T12:08:12;6.72;;;1.25;;
23426;SDS011;41148;45.420;10.952;2022-12-11T12:13:27;0.73;;;0.73;;
23426;SDS011;41148;45.420;10.952;2022-12-11T12:16:28;0.30;;;0.30;;
23426;SDS011;41148;45.420;10.952;2022-12-11T12:22:14;0.32;;;0.32;;
23426;SDS011;41148;45.420;10.952;2022-12-11T12:41:55;5.28;;;0.95;;
23426;SDS011;41148;45.420;10.952;2022-12-11T12:47:24;0.30;;;0.30;;
23426;SDS011;41148;45.420;10.952;2022-12-11T12:49:57;0.50;;;0.50;;
23426;SDS011;41148;45.420;10.952;2022-12-11T13:03:10;0.30;;;0.30;;
23426;SDS011;41148;45.420;10.952;2022-12-11T13:05:58;0.30;;;0.30;;
23426;SDS011;41148;45.420;10.952;2022-12-11T13:08:47;0.47;;;0.47;;
23426;SDS011;41148;45.420;10.952;2022-12-11T13:11:17;0.70;;;0.70;;
23426;SDS011;41148;45.420;10.952;2022-12-11T13:13:48;0.50;;;0.50;;
23426;SDS011;41148;45.420;10.952;2022-12-11T13:16:36;0.30;;;0.30;;
23426;SDS011;41148;45.420;10.952;2022-12-11T13:24:45;0.40;;;0.40;;
23426;SDS011;41148;45.420;10.952;2022-12-11T13:32:33;0.30;;;0.30;;
23426;SDS011;41148;45.420;10.952;2022-12-11T13:35:03;0.30;;;0.30;;
23426;SDS011;41148;45.420;10.952;2022-12-11T13:37:39;0.50;;;0.50;;
23426;SDS011;41148;45.420;10.952;2022-12-11T13:40:28;0.82;;;0.82;;
23426;SDS011;41148;45.420;10.952;2022-12-11T13:43:02;0.55;;;0.55;;
23426;SDS011;41148;45.420;10.952;2022-12-11T13:48:26;0.30;;;0.30;;
23426;SDS011;41148;45.420;10.952;2022-12-11T13:50:58;0.40;;;0.40;;
23426;SDS011;41148;45.420;10.952;2022-12-11T13:53:26;1.10;;;1.00;;
23426;SDS011;41148;45.420;10.952;2022-12-11T13:56:04;0.30;;;0.30;;
23426;SDS011;41148;45.420;10.952;2022-12-11T13:58:34;0.30;;;0.30;;
23426;SDS011;41148;45.420;10.952;2022-12-11T14:01:06;0.68;;;0.68;;
23426;SDS011;41148;45.420;10.952;2022-12-11T14:03:56;0.30;;;0.30;;
23426;SDS011;41148;45.420;10.952;2022-12-11T14:06:35;0.60;;;0.60;;
23426;SDS011;41148;45.420;10.952;2022-12-11T14:09:05;0.30;;;0.30;;
23426;SDS011;41148;45.420;10.952;2022-12-11T14:11:35;0.40;;;0.40;;
23426;SDS011;41148;45.420;10.952;2022-12-11T14:14:07;0.68;;;0.68;;
23426;SDS011;41148;45.420;10.952;2022-12-11T14:16:47;0.32;;;0.32;;
23426;SDS011;41148;45.420;10.952;2022-12-11T14:19:18;0.50;;;0.50;;
23426;SDS011;41148;45.420;10.952;2022-12-11T14:21:54;0.30;;;0.30;;
23426;SDS011;41148;45.420;10.952;2022-12-11T14:26:57;0.40;;;0.40;;
23426;SDS011;41148;45.420;10.952;2022-12-11T14:29:34;0.30;;;0.30;;
23426;SDS011;41148;45.420;10.952;2022-12-11T14:32:02;0.30;;;0.30;;
23426;SDS011;41148;45.420;10.952;2022-12-11T14:34:36;0.55;;;0.55;;
23426;SDS011;41148;45.420;10.952;2022-12-11T14:37:13;2.80;;;1.20;;
23426;SDS011;41148;45.420;10.952;2022-12-11T14:39:45;0.60;;;0.60;;
23426;SDS011;41148;45.420;10.952;2022-12-11T14:42:20;0.30;;;0.30;;
23426;SDS011;41148;45.420;10.952;2022-12-11T14:45:06;0.40;;;0.40;;
23426;SDS011;41148;45.420;10.952;2022-12-11T14:47:42;0.38;;;0.38;;
23426;SDS011;41148;45.420;10.952;2022-12-11T14:50:13;0.30;;;0.30;;
23426;SDS011;41148;45.420;10.952;2022-12-11T14:52:53;0.30;;;0.30;;
23426;SDS011;41148;45.420;10.952;2022-12-11T14:55:26;0.50;;;0.50;;
23426;SDS011;41148;45.420;10.952;2022-12-11T14:57:56;1.08;;;1.08;;
23426;SDS011;41148;45.420;10.952;2022-12-11T15:00:28;0.40;;;0.40;;
23426;SDS011;41148;45.420;10.952;2022-12-11T15:05:34;10.98;;;1.48;;
23426;SDS011;41148;45.420;10.952;2022-12-11T15:10:41;1.50;;;1.10;;
23426;SDS011;41148;45.420;10.952;2022-12-11T15:13:28;0.60;;;0.60;;
23426;SDS011;41148;45.420;10.952;2022-12-11T15:15:56;0.30;;;0.30;;
23426;SDS011;41148;45.420;10.952;2022-12-11T15:20:57;1.02;;;0.88;;
23426;SDS011;41148;45.420;10.952;2022-12-11T15:23:27;0.82;;;0.82;;
23426;SDS011;41148;45.420;10.952;2022-12-11T15:25:56;0.40;;;0.40;;
23426;SDS011;41148;45.420;10.952;2022-12-11T15:30:55;0.30;;;0.30;;
23426;SDS011;41148;45.420;10.952;2022-12-11T15:33:24;0.30;;;0.30;;
23426;SDS011;41148;45.420;10.952;2022-12-11T15:36:05;0.30;;;0.30;;
23426;SDS011;41148;45.420;10.952;2022-12-11T15:38:47;0.35;;;0.35;;
23426;SDS011;41148;45.420;10.952;2022-12-11T15:41:16;0.57;;;0.57;;
23426;SDS011;41148;45.420;10.952;2022-12-11T15:43:51;0.30;;;0.30;;
23426;SDS011;41148;45.420;10.952;2022-12-11T15:46:25;0.30;;;0.30;;
23426;SDS011;41148;45.420;10.952;2022-12-11T15:48:54;0.40;;;0.40;;
23426;SDS011;41148;45.420;10.952;2022-12-11T15:51:22;0.30;;;0.30;;
23426;SDS011;41148;45.420;10.952;2022-12-11T15:53:51;0.77;;;0.65;;
23426;SDS011;41148;45.420;10.952;2022-12-11T15:56:18;0.40;;;0.40;;
23426;SDS011;41148;45.420;10.952;2022-12-11T15:58:46;0.50;;;0.50;;
23426;SDS011;41148;45.420;10.952;2022-12-11T16:01:15;1.73;;;1.65;;
23426;SDS011;41148;45.420;10.952;2022-12-11T16:03:43;5.97;;;1.75;;
23426;SDS011;41148;45.420;10.952;2022-12-11T16:06:11;0.95;;;0.95;;
23426;SDS011;41148;45.420;10.952;2022-12-11T16:08:39;0.95;;;0.93;;
23426;SDS011;41148;45.420;10.952;2022-12-11T16:11:08;0.60;;;0.60;;
23426;SDS011;41148;45.420;10.952;2022-12-11T16:13:38;0.38;;;0.38;;
23426;SDS011;41148;45.420;10.952;2022-12-11T16:16:06;1.35;;;0.95;;
23426;SDS011;41148;45.420;10.952;2022-12-11T16:18:34;0.82;;;0.82;;
23426;SDS011;41148;45.420;10.952;2022-12-11T16:21:03;0.68;;;0.68;;
23426;SDS011;41148;45.420;10.952;2022-12-11T16:23:32;0.40;;;0.40;;
23426;SDS011;41148;45.420;10.952;2022-12-11T16:26:04;0.40;;;0.40;;
23426;SDS011;41148;45.420;10.952;2022-12-11T16:28:32;0.68;;;0.68;;
23426;SDS011;41148;45.420;10.952;2022-12-11T16:30:59;2.15;;;2.05;;
23426;SDS011;41148;45.420;10.952;2022-12-11T16:33:27;1.13;;;1.13;;
23426;SDS011;41148;45.420;10.952;2022-12-11T16:35:55;0.60;;;0.60;;
23426;SDS011;41148;45.420;10.952;2022-12-11T16:38:23;0.32;;;0.32;;
23426;SDS011;41148;45.420;10.952;2022-12-11T16:40:58;0.85;;;0.85;;
23426;SDS011;41148;45.420;10.952;2022-12-11T16:43:27;0.30;;;0.30;;
23426;SDS011;41148;45.420;10.952;2022-12-11T16:45:54;0.40;;;0.40;;
23426;SDS011;41148;45.420;10.952;2022-12-11T16:48:22;0.40;;;0.40;;
23426;SDS011;41148;45.420;10.952;2022-12-11T16:50:51;0.30;;;0.30;;
23426;SDS011;41148;45.420;10.952;2022-12-11T16:53:21;0.98;;;0.98;;
23426;SDS011;41148;45.420;10.952;2022-12-11T16:55:51;0.55;;;0.55;;
23426;SDS011;41148;45.420;10.952;2022-12-11T16:58:18;4.38;;;1.33;;
23426;SDS011;41148;45.420;10.952;2022-12-11T17:00:46;1.02;;;1.02;;
23426;SDS011;41148;45.420;10.952;2022-12-11T17:03:14;0.60;;;0.60;;
23426;SDS011;41148;45.420;10.952;2022-12-11T17:05:42;0.50;;;0.50;;
23426;SDS011;41148;45.420;10.952;2022-12-11T17:08:11;1.05;;;1.05;;
23426;SDS011;41148;45.420;10.952;2022-12-11T17:10:39;1.27;;;1.25;;
23426;SDS011;41148;45.420;10.952;2022-12-11T17:13:08;3.22;;;1.58;;
23426;SDS011;41148;45.420;10.952;2022-12-11T17:15:38;0.43;;;0.43;;
23426;SDS011;41148;45.420;10.952;2022-12-11T17:18:07;0.95;;;0.95;;
23426;SDS011;41148;45.420;10.952;2022-12-11T17:20:41;5.57;;;1.23;;